sensor_id;sensor_type;location;lat;lon;timestamp;P1;durP1;ratioP1;P2;durP2;ratioP2
6983;SDS011;3532;51.118;7.210;2023-02-15T00:00:52;24.10;;;18.03;;
6983;SDS011;3532;51.118;7.210;2023-02-15T00:03:20;26.87;;;18.83;;
6983;SDS011;3532;51.118;7.210;2023-02-15T00:05:46;26.23;;;18.80;;
6983;SDS011;3532;51.118;7.210;2023-02-15T00:08:11;24.90;;;18.97;;
6983;SDS011;3532;51.118;7.210;2023-02-15T00:10:36;25.37;;;19.10;;
6983;SDS011;3532;51.118;7.210;2023-02-15T00:13:01;24.87;;;18.17;;
6983;SDS011;3532;51.118;7.210;2023-02-15T00:15:27;22.30;;;19.50;;
6983;SDS011;3532;51.118;7.210;2023-02-15T00:17:52;25.17;;;18.67;;
6983;SDS011;3532;51.118;7.210;2023-02-15T00:20:17;27.40;;;18.77;;
6983;SDS011;3532;51.118;7.210;2023-02-15T00:22:44;26.27;;;18.35;;
6983;SDS011;3532;51.118;7.210;2023-02-15T00:25:10;25.93;;;20.37;;
6983;SDS011;3532;51.118;7.210;2023-02-15T00:27:35;24.23;;;18.27;;
6983;SDS011;3532;51.118;7.210;2023-02-15T00:30:00;23.73;;;19.73;;
6983;SDS011;3532;51.118;7.210;2023-02-15T00:32:26;25.17;;;18.80;;
6983;SDS011;3532;51.118;7.210;2023-02-15T00:34:51;21.73;;;18.23;;
6983;SDS011;3532;51.118;7.210;2023-02-15T00:37:16;29.83;;;20.40;;
6983;SDS011;3532;51.118;7.210;2023-02-15T00:39:42;24.27;;;19.30;;
6983;SDS011;3532;51.118;7.210;2023-02-15T00:42:07;27.60;;;19.27;;
6983;SDS011;3532;51.118;7.210;2023-02-15T00:44:32;25.17;;;20.13;;
6983;SDS011;3532;51.118;7.210;2023-02-15T00:46:58;28.43;;;20.97;;
6983;SDS011;3532;51.118;7.210;2023-02-15T00:49:23;25.47;;;19.90;;
6983;SDS011;3532;51.118;7.210;2023-02-15T00:51:48;27.97;;;18.50;;
6983;SDS011;3532;51.118;7.210;2023-02-15T00:54:13;28.03;;;20.27;;
6983;SDS011;3532;51.118;7.210;2023-02-15T00:56:39;25.23;;;18.27;;
6983;SDS011;3532;51.118;7.210;2023-02-15T00:59:04;28.03;;;20.07;;
6983;SDS011;3532;51.118;7.210;2023-02-15T01:01:29;29.53;;;20.40;;
6983;SDS011;3532;51.118;7.210;2023-02-15T01:03:55;25.37;;;19.00;;
6983;SDS011;3532;51.118;7.210;2023-02-15T01:06:20;28.87;;;19.93;;
6983;SDS011;3532;51.118;7.210;2023-02-15T01:08:45;28.60;;;20.37;;
6983;SDS011;3532;51.118;7.210;2023-02-15T01:11:18;26.40;;;20.17;;
6983;SDS011;3532;51.118;7.210;2023-02-15T01:13:47;30.63;;;21.08;;
6983;SDS011;3532;51.118;7.210;2023-02-15T01:16:15;31.37;;;20.63;;
6983;SDS011;3532;51.118;7.210;2023-02-15T01:18:41;29.07;;;19.87;;
6983;SDS011;3532;51.118;7.210;2023-02-15T01:21:25;26.63;;;20.07;;
6983;SDS011;3532;51.118;7.210;2023-02-15T01:23:50;29.23;;;21.20;;
6983;SDS011;3532;51.118;7.210;2023-02-15T01:26:16;24.70;;;19.27;;
6983;SDS011;3532;51.118;7.210;2023-02-15T01:28:42;26.97;;;20.90;;
6983;SDS011;3532;51.118;7.210;2023-02-15T01:31:08;28.00;;;20.13;;
6983;SDS011;3532;51.118;7.210;2023-02-15T01:33:35;26.35;;;19.90;;
6983;SDS011;3532;51.118;7.210;2023-02-15T01:36:01;31.13;;;21.47;;
6983;SDS011;3532;51.118;7.210;2023-02-15T01:38:27;27.83;;;20.05;;
6983;SDS011;3532;51.118;7.210;2023-02-15T01:40:52;25.40;;;20.23;;
6983;SDS011;3532;51.118;7.210;2023-02-15T01:43:18;29.63;;;20.37;;
6983;SDS011;3532;51.118;7.210;2023-02-15T01:45:44;29.63;;;21.47;;
6983;SDS011;3532;51.118;7.210;2023-02-15T01:48:24;27.60;;;20.73;;
6983;SDS011;3532;51.118;7.210;2023-02-15T01:50:53;26.07;;;18.20;;
6983;SDS011;3532;51.118;7.210;2023-02-15T01:53:24;26.13;;;19.33;;
6983;SDS011;3532;51.118;7.210;2023-02-15T01:55:58;29.20;;;20.13;;
6983;SDS011;3532;51.118;7.210;2023-02-15T01:58:25;27.40;;;20.23;;
6983;SDS011;3532;51.118;7.210;2023-02-15T02:00:52;27.73;;;20.17;;
6983;SDS011;3532;51.118;7.210;2023-02-15T02:03:18;27.98;;;20.15;;
6983;SDS011;3532;51.118;7.210;2023-02-15T02:05:49;24.33;;;18.97;;
6983;SDS011;3532;51.118;7.210;2023-02-15T02:08:14;25.47;;;19.60;;
6983;SDS011;3532;51.118;7.210;2023-02-15T02:10:39;27.27;;;20.83;;
6983;SDS011;3532;51.118;7.210;2023-02-15T02:13:05;27.90;;;20.40;;
6983;SDS011;3532;51.118;7.210;2023-02-15T02:15:44;25.60;;;19.07;;
6983;SDS011;3532;51.118;7.210;2023-02-15T02:20:59;28.15;;;20.92;;
6983;SDS011;3532;51.118;7.210;2023-02-15T02:26:09;31.63;;;21.08;;
6983;SDS011;3532;51.118;7.210;2023-02-15T02:34:26;29.23;;;20.27;;
6983;SDS011;3532;51.118;7.210;2023-02-15T02:49:59;25.83;;;19.83;;
6983;SDS011;3532;51.118;7.210;2023-02-15T02:52:34;29.60;;;22.23;;
6983;SDS011;3532;51.118;7.210;2023-02-15T02:57:51;29.30;;;20.67;;
6983;SDS011;3532;51.118;7.210;2023-02-15T03:00:19;26.77;;;20.00;;
6983;SDS011;3532;51.118;7.210;2023-02-15T03:02:47;25.52;;;19.05;;
6983;SDS011;3532;51.118;7.210;2023-02-15T03:05:18;29.10;;;21.50;;
6983;SDS011;3532;51.118;7.210;2023-02-15T03:07:47;25.83;;;19.10;;
6983;SDS011;3532;51.118;7.210;2023-02-15T03:10:15;27.77;;;20.20;;
6983;SDS011;3532;51.118;7.210;2023-02-15T03:12:40;28.00;;;20.53;;
6983;SDS011;3532;51.118;7.210;2023-02-15T03:15:08;29.20;;;20.33;;
6983;SDS011;3532;51.118;7.210;2023-02-15T03:17:37;26.85;;;20.17;;
6983;SDS011;3532;51.118;7.210;2023-02-15T03:20:11;32.38;;;22.38;;
6983;SDS011;3532;51.118;7.210;2023-02-15T03:22:50;27.50;;;21.43;;
6983;SDS011;3532;51.118;7.210;2023-02-15T03:25:25;25.95;;;19.23;;
6983;SDS011;3532;51.118;7.210;2023-02-15T03:27:54;29.50;;;20.03;;
6983;SDS011;3532;51.118;7.210;2023-02-15T03:30:21;25.10;;;18.50;;
6983;SDS011;3532;51.118;7.210;2023-02-15T03:32:47;27.45;;;19.40;;
6983;SDS011;3532;51.118;7.210;2023-02-15T03:35:13;26.33;;;20.63;;
6983;SDS011;3532;51.118;7.210;2023-02-15T03:37:40;27.50;;;20.27;;
6983;SDS011;3532;51.118;7.210;2023-02-15T03:40:13;28.83;;;21.08;;
6983;SDS011;3532;51.118;7.210;2023-02-15T03:48:43;30.27;;;20.10;;
6983;SDS011;3532;51.118;7.210;2023-02-15T03:51:12;25.95;;;20.30;;
6983;SDS011;3532;51.118;7.210;2023-02-15T03:53:58;28.25;;;20.23;;
6983;SDS011;3532;51.118;7.210;2023-02-15T03:56:59;27.05;;;18.90;;
6983;SDS011;3532;51.118;7.210;2023-02-15T03:59:43;26.35;;;19.55;;
6983;SDS011;3532;51.118;7.210;2023-02-15T04:02:27;26.27;;;18.25;;
6983;SDS011;3532;51.118;7.210;2023-02-15T04:05:00;26.58;;;19.27;;
6983;SDS011;3532;51.118;7.210;2023-02-15T04:07:25;26.47;;;20.50;;
6983;SDS011;3532;51.118;7.210;2023-02-15T04:09:50;26.87;;;20.27;;
6983;SDS011;3532;51.118;7.210;2023-02-15T04:12:34;27.38;;;19.27;;
6983;SDS011;3532;51.118;7.210;2023-02-15T04:14:59;28.83;;;19.83;;
6983;SDS011;3532;51.118;7.210;2023-02-15T04:17:43;29.20;;;19.63;;
6983;SDS011;3532;51.118;7.210;2023-02-15T04:20:08;28.77;;;20.10;;
6983;SDS011;3532;51.118;7.210;2023-02-15T04:22:52;28.20;;;20.33;;
6983;SDS011;3532;51.118;7.210;2023-02-15T04:25:36;28.47;;;20.63;;
6983;SDS011;3532;51.118;7.210;2023-02-15T04:28:01;27.10;;;19.53;;
6983;SDS011;3532;51.118;7.210;2023-02-15T04:30:26;29.67;;;20.53;;
6983;SDS011;3532;51.118;7.210;2023-02-15T04:32:53;28.67;;;19.30;;
6983;SDS011;3532;51.118;7.210;2023-02-15T04:35:18;26.92;;;19.63;;
6983;SDS011;3532;51.118;7.210;2023-02-15T04:37:44;28.13;;;19.47;;
6983;SDS011;3532;51.118;7.210;2023-02-15T04:40:12;29.60;;;19.10;;
6983;SDS011;3532;51.118;7.210;2023-02-15T04:42:38;24.92;;;18.48;;
6983;SDS011;3532;51.118;7.210;2023-02-15T04:45:04;29.57;;;20.20;;
6983;SDS011;3532;51.118;7.210;2023-02-15T04:47:29;26.43;;;19.13;;
6983;SDS011;3532;51.118;7.210;2023-02-15T04:49:55;29.67;;;20.90;;
6983;SDS011;3532;51.118;7.210;2023-02-15T04:52:20;26.77;;;20.23;;
6983;SDS011;3532;51.118;7.210;2023-02-15T04:54:46;26.97;;;19.70;;
6983;SDS011;3532;51.118;7.210;2023-02-15T04:57:12;23.67;;;18.30;;
6983;SDS011;3532;51.118;7.210;2023-02-15T04:59:37;28.50;;;19.73;;
6983;SDS011;3532;51.118;7.210;2023-02-15T05:02:03;27.03;;;20.20;;
6983;SDS011;3532;51.118;7.210;2023-02-15T05:04:28;24.57;;;20.00;;
6983;SDS011;3532;51.118;7.210;2023-02-15T05:06:53;30.50;;;20.17;;
6983;SDS011;3532;51.118;7.210;2023-02-15T05:09:19;24.70;;;18.70;;
6983;SDS011;3532;51.118;7.210;2023-02-15T05:11:44;25.07;;;19.90;;
6983;SDS011;3532;51.118;7.210;2023-02-15T05:14:09;21.97;;;17.80;;
6983;SDS011;3532;51.118;7.210;2023-02-15T05:16:35;27.40;;;19.03;;
6983;SDS011;3532;51.118;7.210;2023-02-15T05:19:00;23.37;;;17.57;;
6983;SDS011;3532;51.118;7.210;2023-02-15T05:21:25;25.57;;;18.67;;
6983;SDS011;3532;51.118;7.210;2023-02-15T05:23:51;30.30;;;18.93;;
6983;SDS011;3532;51.118;7.210;2023-02-15T05:26:17;25.73;;;17.40;;
6983;SDS011;3532;51.118;7.210;2023-02-15T05:29:04;26.42;;;17.60;;
6983;SDS011;3532;51.118;7.210;2023-02-15T05:31:30;24.97;;;17.70;;
6983;SDS011;3532;51.118;7.210;2023-02-15T05:33:55;26.90;;;19.43;;
6983;SDS011;3532;51.118;7.210;2023-02-15T05:36:20;27.10;;;19.10;;
6983;SDS011;3532;51.118;7.210;2023-02-15T05:38:46;25.30;;;18.03;;
6983;SDS011;3532;51.118;7.210;2023-02-15T05:41:11;23.60;;;17.33;;
6983;SDS011;3532;51.118;7.210;2023-02-15T05:43:37;25.43;;;18.37;;
6983;SDS011;3532;51.118;7.210;2023-02-15T05:46:02;27.10;;;18.55;;
6983;SDS011;3532;51.118;7.210;2023-02-15T05:48:28;23.37;;;18.57;;
6983;SDS011;3532;51.118;7.210;2023-02-15T05:51:03;25.33;;;18.20;;
6983;SDS011;3532;51.118;7.210;2023-02-15T05:53:30;25.42;;;18.20;;
6983;SDS011;3532;51.118;7.210;2023-02-15T05:55:56;25.05;;;18.17;;
6983;SDS011;3532;51.118;7.210;2023-02-15T05:58:26;23.98;;;17.48;;
6983;SDS011;3532;51.118;7.210;2023-02-15T06:00:51;26.08;;;18.95;;
6983;SDS011;3532;51.118;7.210;2023-02-15T06:03:17;23.57;;;17.07;;
6983;SDS011;3532;51.118;7.210;2023-02-15T06:05:42;21.93;;;15.93;;
6983;SDS011;3532;51.118;7.210;2023-02-15T06:08:07;25.57;;;17.67;;
6983;SDS011;3532;51.118;7.210;2023-02-15T06:10:33;24.13;;;16.83;;
6983;SDS011;3532;51.118;7.210;2023-02-15T06:12:58;26.70;;;17.93;;
6983;SDS011;3532;51.118;7.210;2023-02-15T06:15:23;22.93;;;17.67;;
6983;SDS011;3532;51.118;7.210;2023-02-15T06:17:49;24.07;;;15.80;;
6983;SDS011;3532;51.118;7.210;2023-02-15T06:20:14;21.80;;;16.60;;
6983;SDS011;3532;51.118;7.210;2023-02-15T06:22:39;25.00;;;17.40;;
6983;SDS011;3532;51.118;7.210;2023-02-15T06:25:05;21.90;;;16.50;;
6983;SDS011;3532;51.118;7.210;2023-02-15T06:27:30;23.80;;;17.20;;
6983;SDS011;3532;51.118;7.210;2023-02-15T06:29:55;27.77;;;17.87;;
6983;SDS011;3532;51.118;7.210;2023-02-15T06:32:21;24.53;;;16.17;;
6983;SDS011;3532;51.118;7.210;2023-02-15T06:34:46;23.13;;;17.00;;
6983;SDS011;3532;51.118;7.210;2023-02-15T06:37:11;21.73;;;16.57;;
6983;SDS011;3532;51.118;7.210;2023-02-15T06:39:37;23.07;;;16.27;;
6983;SDS011;3532;51.118;7.210;2023-02-15T06:42:02;22.70;;;16.50;;
6983;SDS011;3532;51.118;7.210;2023-02-15T06:44:27;22.27;;;17.27;;
6983;SDS011;3532;51.118;7.210;2023-02-15T06:46:53;22.00;;;16.70;;
6983;SDS011;3532;51.118;7.210;2023-02-15T06:49:18;23.17;;;16.70;;
6983;SDS011;3532;51.118;7.210;2023-02-15T06:51:43;23.63;;;17.10;;
6983;SDS011;3532;51.118;7.210;2023-02-15T06:54:09;22.90;;;16.97;;
6983;SDS011;3532;51.118;7.210;2023-02-15T06:56:34;22.20;;;16.00;;
6983;SDS011;3532;51.118;7.210;2023-02-15T06:58:59;21.90;;;17.80;;
6983;SDS011;3532;51.118;7.210;2023-02-15T07:01:25;23.83;;;17.30;;
6983;SDS011;3532;51.118;7.210;2023-02-15T07:03:50;23.57;;;17.23;;
6983;SDS011;3532;51.118;7.210;2023-02-15T07:06:15;26.63;;;18.07;;
6983;SDS011;3532;51.118;7.210;2023-02-15T07:08:41;21.43;;;15.87;;
6983;SDS011;3532;51.118;7.210;2023-02-15T07:11:06;22.17;;;15.77;;
6983;SDS011;3532;51.118;7.210;2023-02-15T07:13:50;23.52;;;16.40;;
6983;SDS011;3532;51.118;7.210;2023-02-15T07:16:17;22.50;;;16.90;;
6983;SDS011;3532;51.118;7.210;2023-02-15T07:18:42;20.17;;;16.07;;
6983;SDS011;3532;51.118;7.210;2023-02-15T07:21:08;21.40;;;15.90;;
6983;SDS011;3532;51.118;7.210;2023-02-15T07:23:34;22.70;;;16.23;;
6983;SDS011;3532;51.118;7.210;2023-02-15T07:26:00;23.27;;;17.17;;
6983;SDS011;3532;51.118;7.210;2023-02-15T07:28:26;21.85;;;16.20;;
6983;SDS011;3532;51.118;7.210;2023-02-15T07:30:52;19.77;;;15.87;;
6983;SDS011;3532;51.118;7.210;2023-02-15T07:33:17;20.93;;;15.50;;
6983;SDS011;3532;51.118;7.210;2023-02-15T07:35:52;20.85;;;15.40;;
6983;SDS011;3532;51.118;7.210;2023-02-15T07:38:20;21.25;;;17.08;;
6983;SDS011;3532;51.118;7.210;2023-02-15T07:40:45;19.07;;;14.93;;
6983;SDS011;3532;51.118;7.210;2023-02-15T07:43:11;22.90;;;15.93;;
6983;SDS011;3532;51.118;7.210;2023-02-15T07:45:36;19.27;;;15.23;;
6983;SDS011;3532;51.118;7.210;2023-02-15T07:48:02;21.70;;;15.70;;
6983;SDS011;3532;51.118;7.210;2023-02-15T07:50:28;20.00;;;15.55;;
6983;SDS011;3532;51.118;7.210;2023-02-15T07:52:54;21.33;;;16.20;;
6983;SDS011;3532;51.118;7.210;2023-02-15T07:55:19;19.13;;;14.17;;
6983;SDS011;3532;51.118;7.210;2023-02-15T07:57:45;20.20;;;14.63;;
6983;SDS011;3532;51.118;7.210;2023-02-15T08:00:12;25.23;;;15.27;;
6983;SDS011;3532;51.118;7.210;2023-02-15T08:02:49;19.60;;;14.63;;
6983;SDS011;3532;51.118;7.210;2023-02-15T08:05:38;19.42;;;14.13;;
6983;SDS011;3532;51.118;7.210;2023-02-15T08:08:04;19.90;;;13.48;;
6983;SDS011;3532;51.118;7.210;2023-02-15T08:10:30;17.20;;;14.07;;
6983;SDS011;3532;51.118;7.210;2023-02-15T08:13:14;17.67;;;14.10;;
6983;SDS011;3532;51.118;7.210;2023-02-15T08:15:39;18.13;;;14.40;;
6983;SDS011;3532;51.118;7.210;2023-02-15T08:18:05;19.77;;;13.57;;
6983;SDS011;3532;51.118;7.210;2023-02-15T08:20:30;18.23;;;14.37;;
6983;SDS011;3532;51.118;7.210;2023-02-15T08:22:55;18.77;;;13.53;;
6983;SDS011;3532;51.118;7.210;2023-02-15T08:25:21;17.03;;;14.33;;
6983;SDS011;3532;51.118;7.210;2023-02-15T08:27:46;19.73;;;15.47;;
6983;SDS011;3532;51.118;7.210;2023-02-15T08:30:11;20.43;;;14.67;;
6983;SDS011;3532;51.118;7.210;2023-02-15T08:32:39;18.47;;;13.87;;
6983;SDS011;3532;51.118;7.210;2023-02-15T08:35:04;19.63;;;14.57;;
6983;SDS011;3532;51.118;7.210;2023-02-15T08:37:30;20.27;;;12.83;;
6983;SDS011;3532;51.118;7.210;2023-02-15T08:39:55;20.20;;;15.03;;
6983;SDS011;3532;51.118;7.210;2023-02-15T08:42:20;17.33;;;13.63;;
6983;SDS011;3532;51.118;7.210;2023-02-15T08:44:46;16.93;;;13.20;;
6983;SDS011;3532;51.118;7.210;2023-02-15T08:47:11;20.80;;;13.50;;
6983;SDS011;3532;51.118;7.210;2023-02-15T08:49:37;16.90;;;13.10;;
6983;SDS011;3532;51.118;7.210;2023-02-15T08:52:02;17.43;;;13.07;;
6983;SDS011;3532;51.118;7.210;2023-02-15T08:54:28;18.17;;;14.80;;
6983;SDS011;3532;51.118;7.210;2023-02-15T08:56:53;15.80;;;12.90;;
6983;SDS011;3532;51.118;7.210;2023-02-15T08:59:22;16.33;;;13.40;;
6983;SDS011;3532;51.118;7.210;2023-02-15T09:01:48;15.30;;;12.70;;
6983;SDS011;3532;51.118;7.210;2023-02-15T09:04:14;18.97;;;13.77;;
6983;SDS011;3532;51.118;7.210;2023-02-15T09:06:40;16.00;;;12.93;;
6983;SDS011;3532;51.118;7.210;2023-02-15T09:09:07;14.97;;;11.93;;
6983;SDS011;3532;51.118;7.210;2023-02-15T09:11:34;17.73;;;13.03;;
6983;SDS011;3532;51.118;7.210;2023-02-15T09:14:08;17.13;;;12.90;;
6983;SDS011;3532;51.118;7.210;2023-02-15T09:16:39;17.23;;;12.50;;
6983;SDS011;3532;51.118;7.210;2023-02-15T09:19:05;15.33;;;12.53;;
6983;SDS011;3532;51.118;7.210;2023-02-15T09:21:31;16.43;;;12.03;;
6983;SDS011;3532;51.118;7.210;2023-02-15T09:23:59;15.63;;;11.87;;
6983;SDS011;3532;51.118;7.210;2023-02-15T09:26:27;14.53;;;11.97;;
6983;SDS011;3532;51.118;7.210;2023-02-15T09:28:54;13.80;;;10.73;;
6983;SDS011;3532;51.118;7.210;2023-02-15T09:31:22;14.07;;;11.80;;
6983;SDS011;3532;51.118;7.210;2023-02-15T09:33:51;15.30;;;11.93;;
6983;SDS011;3532;51.118;7.210;2023-02-15T09:36:18;16.17;;;11.70;;
6983;SDS011;3532;51.118;7.210;2023-02-15T09:38:46;14.90;;;11.83;;
6983;SDS011;3532;51.118;7.210;2023-02-15T09:41:17;16.63;;;12.53;;
6983;SDS011;3532;51.118;7.210;2023-02-15T09:52:46;13.97;;;11.13;;
6983;SDS011;3532;51.118;7.210;2023-02-15T09:55:38;16.57;;;11.50;;
6983;SDS011;3532;51.118;7.210;2023-02-15T10:07:00;13.13;;;10.57;;
6983;SDS011;3532;51.118;7.210;2023-02-15T10:17:46;14.60;;;11.70;;
6983;SDS011;3532;51.118;7.210;2023-02-15T10:33:47;12.63;;;11.00;;
6983;SDS011;3532;51.118;7.210;2023-02-15T10:44:56;14.07;;;10.50;;
6983;SDS011;3532;51.118;7.210;2023-02-15T10:52:59;13.57;;;11.67;;
6983;SDS011;3532;51.118;7.210;2023-02-15T11:01:27;11.80;;;9.80;;
6983;SDS011;3532;51.118;7.210;2023-02-15T11:06:47;16.83;;;12.43;;
6983;SDS011;3532;51.118;7.210;2023-02-15T11:09:16;14.60;;;11.57;;
6983;SDS011;3532;51.118;7.210;2023-02-15T11:11:44;15.67;;;11.03;;
6983;SDS011;3532;51.118;7.210;2023-02-15T11:16:58;11.97;;;10.77;;
6983;SDS011;3532;51.118;7.210;2023-02-15T11:19:30;12.67;;;10.40;;
6983;SDS011;3532;51.118;7.210;2023-02-15T11:21:57;13.10;;;10.70;;
6983;SDS011;3532;51.118;7.210;2023-02-15T11:24:26;11.87;;;10.40;;
6983;SDS011;3532;51.118;7.210;2023-02-15T11:40:28;12.13;;;10.03;;
6983;SDS011;3532;51.118;7.210;2023-02-15T11:42:55;13.00;;;10.50;;
6983;SDS011;3532;51.118;7.210;2023-02-15T11:45:25;13.20;;;10.33;;
6983;SDS011;3532;51.118;7.210;2023-02-15T11:47:55;11.90;;;10.63;;
6983;SDS011;3532;51.118;7.210;2023-02-15T11:50:22;12.50;;;10.27;;
6983;SDS011;3532;51.118;7.210;2023-02-15T11:52:49;13.83;;;11.17;;
6983;SDS011;3532;51.118;7.210;2023-02-15T11:55:18;13.07;;;10.90;;
6983;SDS011;3532;51.118;7.210;2023-02-15T11:57:48;14.87;;;10.10;;
6983;SDS011;3532;51.118;7.210;2023-02-15T12:00:25;14.10;;;10.57;;
6983;SDS011;3532;51.118;7.210;2023-02-15T12:02:56;15.97;;;10.40;;
6983;SDS011;3532;51.118;7.210;2023-02-15T12:05:23;10.37;;;8.90;;
6983;SDS011;3532;51.118;7.210;2023-02-15T12:07:51;14.30;;;10.40;;
6983;SDS011;3532;51.118;7.210;2023-02-15T12:10:22;12.30;;;10.23;;
6983;SDS011;3532;51.118;7.210;2023-02-15T12:13:08;13.63;;;9.87;;
6983;SDS011;3532;51.118;7.210;2023-02-15T12:15:36;12.17;;;10.20;;
6983;SDS011;3532;51.118;7.210;2023-02-15T12:18:02;14.73;;;11.37;;
6983;SDS011;3532;51.118;7.210;2023-02-15T12:20:28;13.97;;;10.50;;
6983;SDS011;3532;51.118;7.210;2023-02-15T12:25:35;12.37;;;9.70;;
6983;SDS011;3532;51.118;7.210;2023-02-15T12:28:15;12.33;;;10.87;;
6983;SDS011;3532;51.118;7.210;2023-02-15T12:30:46;11.87;;;9.50;;
6983;SDS011;3532;51.118;7.210;2023-02-15T12:33:15;12.57;;;9.90;;
6983;SDS011;3532;51.118;7.210;2023-02-15T12:35:42;11.17;;;9.60;;
6983;SDS011;3532;51.118;7.210;2023-02-15T12:40:34;13.07;;;10.57;;
6983;SDS011;3532;51.118;7.210;2023-02-15T12:43:00;13.20;;;9.50;;
6983;SDS011;3532;51.118;7.210;2023-02-15T12:45:33;12.53;;;9.47;;
6983;SDS011;3532;51.118;7.210;2023-02-15T12:50:36;10.33;;;8.60;;
6983;SDS011;3532;51.118;7.210;2023-02-15T12:53:06;10.80;;;9.53;;
6983;SDS011;3532;51.118;7.210;2023-02-15T12:55:37;11.63;;;9.83;;
6983;SDS011;3532;51.118;7.210;2023-02-15T13:01:02;13.70;;;10.60;;
6983;SDS011;3532;51.118;7.210;2023-02-15T13:03:52;11.30;;;9.60;;
6983;SDS011;3532;51.118;7.210;2023-02-15T13:06:21;11.47;;;10.13;;
6983;SDS011;3532;51.118;7.210;2023-02-15T13:08:50;13.87;;;10.10;;
6983;SDS011;3532;51.118;7.210;2023-02-15T13:11:29;14.20;;;10.87;;
6983;SDS011;3532;51.118;7.210;2023-02-15T13:14:03;12.70;;;9.90;;
6983;SDS011;3532;51.118;7.210;2023-02-15T13:16:47;12.47;;;9.77;;
6983;SDS011;3532;51.118;7.210;2023-02-15T13:19:18;12.50;;;10.10;;
6983;SDS011;3532;51.118;7.210;2023-02-15T13:21:48;13.17;;;10.43;;
6983;SDS011;3532;51.118;7.210;2023-02-15T13:24:20;12.67;;;10.03;;
6983;SDS011;3532;51.118;7.210;2023-02-15T13:26:47;13.63;;;10.03;;
6983;SDS011;3532;51.118;7.210;2023-02-15T13:29:28;13.67;;;11.27;;
6983;SDS011;3532;51.118;7.210;2023-02-15T13:31:56;14.67;;;11.20;;
6983;SDS011;3532;51.118;7.210;2023-02-15T13:34:30;12.80;;;10.17;;
6983;SDS011;3532;51.118;7.210;2023-02-15T13:37:03;14.37;;;10.37;;
6983;SDS011;3532;51.118;7.210;2023-02-15T13:39:58;12.73;;;9.83;;
6983;SDS011;3532;51.118;7.210;2023-02-15T13:42:30;13.20;;;10.80;;
6983;SDS011;3532;51.118;7.210;2023-02-15T13:55:49;14.10;;;10.90;;
6983;SDS011;3532;51.118;7.210;2023-02-15T13:58:26;13.57;;;10.50;;
6983;SDS011;3532;51.118;7.210;2023-02-15T14:12:18;14.10;;;11.00;;
6983;SDS011;3532;51.118;7.210;2023-02-15T14:17:50;19.47;;;12.30;;
6983;SDS011;3532;51.118;7.210;2023-02-15T14:23:10;12.77;;;10.50;;
6983;SDS011;3532;51.118;7.210;2023-02-15T14:26:06;12.93;;;11.43;;
6983;SDS011;3532;51.118;7.210;2023-02-15T14:28:40;13.77;;;11.30;;
6983;SDS011;3532;51.118;7.210;2023-02-15T14:31:11;15.30;;;11.83;;
6983;SDS011;3532;51.118;7.210;2023-02-15T14:33:38;17.03;;;12.03;;
6983;SDS011;3532;51.118;7.210;2023-02-15T14:36:08;14.03;;;10.70;;
6983;SDS011;3532;51.118;7.210;2023-02-15T14:41:25;13.63;;;11.27;;
6983;SDS011;3532;51.118;7.210;2023-02-15T14:46:37;13.63;;;11.00;;
6983;SDS011;3532;51.118;7.210;2023-02-15T14:54:09;13.40;;;10.73;;
6983;SDS011;3532;51.118;7.210;2023-02-15T14:56:35;14.60;;;10.60;;
6983;SDS011;3532;51.118;7.210;2023-02-15T14:59:11;13.27;;;11.23;;
6983;SDS011;3532;51.118;7.210;2023-02-15T15:01:50;15.13;;;11.17;;
6983;SDS011;3532;51.118;7.210;2023-02-15T15:06:59;16.37;;;11.63;;
6983;SDS011;3532;51.118;7.210;2023-02-15T15:09:41;12.70;;;10.20;;
6983;SDS011;3532;51.118;7.210;2023-02-15T15:14:51;14.07;;;11.47;;
6983;SDS011;3532;51.118;7.210;2023-02-15T15:20:12;12.57;;;11.20;;
6983;SDS011;3532;51.118;7.210;2023-02-15T15:22:42;14.60;;;11.47;;
6983;SDS011;3532;51.118;7.210;2023-02-15T15:28:07;15.33;;;12.47;;
6983;SDS011;3532;51.118;7.210;2023-02-15T15:33:12;15.63;;;11.53;;
6983;SDS011;3532;51.118;7.210;2023-02-15T15:41:29;13.90;;;10.97;;
6983;SDS011;3532;51.118;7.210;2023-02-15T15:46:35;18.10;;;11.37;;
6983;SDS011;3532;51.118;7.210;2023-02-15T15:49:08;16.83;;;12.53;;
6983;SDS011;3532;51.118;7.210;2023-02-15T15:51:37;14.57;;;11.07;;
6983;SDS011;3532;51.118;7.210;2023-02-15T15:54:04;14.23;;;11.37;;
6983;SDS011;3532;51.118;7.210;2023-02-15T15:56:33;16.20;;;12.10;;
6983;SDS011;3532;51.118;7.210;2023-02-15T15:59:01;14.07;;;10.83;;
6983;SDS011;3532;51.118;7.210;2023-02-15T16:01:29;13.27;;;10.80;;
6983;SDS011;3532;51.118;7.210;2023-02-15T16:03:56;15.80;;;11.67;;
6983;SDS011;3532;51.118;7.210;2023-02-15T16:06:35;13.00;;;10.77;;
6983;SDS011;3532;51.118;7.210;2023-02-15T16:11:57;13.50;;;11.20;;
6983;SDS011;3532;51.118;7.210;2023-02-15T16:14:37;15.27;;;12.00;;
6983;SDS011;3532;51.118;7.210;2023-02-15T16:17:08;13.37;;;11.67;;
6983;SDS011;3532;51.118;7.210;2023-02-15T16:19:41;16.23;;;12.33;;
6983;SDS011;3532;51.118;7.210;2023-02-15T16:22:10;14.83;;;11.80;;
6983;SDS011;3532;51.118;7.210;2023-02-15T16:27:41;14.97;;;12.60;;
6983;SDS011;3532;51.118;7.210;2023-02-15T16:32:54;13.30;;;11.47;;
6983;SDS011;3532;51.118;7.210;2023-02-15T16:35:22;15.50;;;11.70;;
6983;SDS011;3532;51.118;7.210;2023-02-15T16:37:48;13.87;;;11.30;;
6983;SDS011;3532;51.118;7.210;2023-02-15T16:42:48;13.27;;;11.43;;
6983;SDS011;3532;51.118;7.210;2023-02-15T16:45:17;15.17;;;11.57;;
6983;SDS011;3532;51.118;7.210;2023-02-15T16:47:46;12.93;;;11.00;;
6983;SDS011;3532;51.118;7.210;2023-02-15T16:50:26;14.90;;;10.93;;
6983;SDS011;3532;51.118;7.210;2023-02-15T16:52:56;14.17;;;11.63;;
6983;SDS011;3532;51.118;7.210;2023-02-15T16:55:23;15.93;;;12.27;;
6983;SDS011;3532;51.118;7.210;2023-02-15T16:57:50;13.53;;;11.03;;
6983;SDS011;3532;51.118;7.210;2023-02-15T17:00:20;15.47;;;12.00;;
6983;SDS011;3532;51.118;7.210;2023-02-15T17:03:06;14.60;;;11.63;;
6983;SDS011;3532;51.118;7.210;2023-02-15T17:05:46;13.83;;;11.60;;
6983;SDS011;3532;51.118;7.210;2023-02-15T17:13:25;15.70;;;12.07;;
6983;SDS011;3532;51.118;7.210;2023-02-15T17:18:26;17.47;;;12.47;;
6983;SDS011;3532;51.118;7.210;2023-02-15T17:20:53;16.53;;;12.63;;
6983;SDS011;3532;51.118;7.210;2023-02-15T17:23:25;15.20;;;12.53;;
6983;SDS011;3532;51.118;7.210;2023-02-15T17:25:54;14.27;;;12.50;;
6983;SDS011;3532;51.118;7.210;2023-02-15T17:28:24;15.50;;;12.47;;
6983;SDS011;3532;51.118;7.210;2023-02-15T17:30:51;13.90;;;11.93;;
6983;SDS011;3532;51.118;7.210;2023-02-15T17:36:05;14.67;;;12.47;;
6983;SDS011;3532;51.118;7.210;2023-02-15T17:38:32;14.67;;;11.50;;
6983;SDS011;3532;51.118;7.210;2023-02-15T17:40:57;14.77;;;12.03;;
6983;SDS011;3532;51.118;7.210;2023-02-15T17:43:25;13.70;;;11.80;;
6983;SDS011;3532;51.118;7.210;2023-02-15T17:45:51;16.20;;;12.90;;
6983;SDS011;3532;51.118;7.210;2023-02-15T17:48:21;15.70;;;12.63;;
6983;SDS011;3532;51.118;7.210;2023-02-15T17:50:47;15.30;;;11.93;;
6983;SDS011;3532;51.118;7.210;2023-02-15T17:53:12;15.27;;;12.53;;
6983;SDS011;3532;51.118;7.210;2023-02-15T17:55:40;17.83;;;12.80;;
6983;SDS011;3532;51.118;7.210;2023-02-15T17:58:08;14.17;;;11.57;;
6983;SDS011;3532;51.118;7.210;2023-02-15T18:00:36;14.20;;;12.07;;
6983;SDS011;3532;51.118;7.210;2023-02-15T18:03:50;15.10;;;12.37;;
6983;SDS011;3532;51.118;7.210;2023-02-15T18:06:33;17.17;;;12.77;;
6983;SDS011;3532;51.118;7.210;2023-02-15T18:09:19;15.37;;;11.87;;
6983;SDS011;3532;51.118;7.210;2023-02-15T18:14:45;15.97;;;12.47;;
6983;SDS011;3532;51.118;7.210;2023-02-15T18:17:11;16.13;;;12.87;;
6983;SDS011;3532;51.118;7.210;2023-02-15T18:19:38;16.07;;;13.33;;
6983;SDS011;3532;51.118;7.210;2023-02-15T18:22:10;20.23;;;13.77;;
6983;SDS011;3532;51.118;7.210;2023-02-15T18:24:36;15.03;;;12.83;;
6983;SDS011;3532;51.118;7.210;2023-02-15T18:27:04;19.17;;;13.10;;